Time;durP1;ratioP1;P1;durP2;ratioP2;P2;SDS_P1;SDS_P2;PMS_P1;PMS_P2;Temp;Humidity;BMP_temperature;BMP_pressure;BME280_temperature;BME280_humidity;BME280_pressure;Samples;Min_cycle;Max_cycle;Signal;HPM_P1;HPM_P2
2023/10/22 00:02:18;;;;;;;6.40;1.30;;;12.40;99.90;;;;;;5053624;28;20064;-73
2023/10/22 00:05:05;;;;;;;6.70;1.65;;;12.40;99.90;;;;;;5053505;28;20048;-75
2023/10/22 00:07:51;;;;;;;10.23;1.55;;;12.40;99.90;;;;;;5054588;28;20049;-75
2023/10/22 00:10:37;;;;;;;4.93;1.10;;;12.40;99.90;;;;;;5039384;28;20067;-80
2023/10/22 00:13:23;;;;;;;6.10;1.60;;;12.40;99.90;;;;;;5053465;28;20063;-74
2023/10/22 00:16:09;;;;;;;4.47;0.80;;;12.40;99.90;;;;;;5053062;28;20053;-75
2023/10/22 00:18:55;;;;;;;3.20;1.08;;;12.40;99.90;;;;;;5063638;28;20067;-79
2023/10/22 00:21:41;;;;;;;6.00;1.48;;;12.40;99.90;;;;;;5090967;28;20046;-74
2023/10/22 00:24:27;;;;;;;8.93;1.60;;;12.30;99.90;;;;;;5073633;28;20060;-82
2023/10/22 00:27:13;;;;;;;8.32;1.27;;;12.30;99.90;;;;;;5073337;28;20052;-84
2023/10/22 00:30:00;;;;;;;6.15;1.40;;;12.30;99.90;;;;;;5073760;28;20044;-73
2023/10/22 00:32:46;;;;;;;6.53;1.27;;;12.30;99.90;;;;;;5072431;28;20071;-82
2023/10/22 00:35:32;;;;;;;9.48;1.48;;;12.30;99.90;;;;;;5076990;28;20056;-74
2023/10/22 00:38:18;;;;;;;5.82;1.23;;;12.40;99.90;;;;;;5074711;28;20075;-79
2023/10/22 00:41:04;;;;;;;5.15;0.98;;;12.40;99.90;;;;;;5073584;28;20063;-74
2023/10/22 00:43:50;;;;;;;7.57;1.35;;;12.40;99.90;;;;;;5072978;28;20040;-75
2023/10/22 00:46:37;;;;;;;7.53;1.75;;;12.50;99.90;;;;;;5072901;28;20098;-76
2023/10/22 00:49:23;;;;;;;7.75;1.52;;;12.50;99.90;;;;;;5072489;28;20048;-77
2023/10/22 00:52:11;;;;;;;5.75;0.98;;;12.50;99.90;;;;;;5073454;28;20056;-74
2023/10/22 00:54:58;;;;;;;8.18;1.00;;;12.50;99.90;;;;;;5091401;28;20044;-76
2023/10/22 00:57:44;;;;;;;3.80;0.95;;;12.40;99.90;;;;;;5073192;28;20142;-74
2023/10/22 01:00:33;;;;;;;6.75;1.63;;;12.40;99.90;;;;;;5090326;28;20109;-75
2023/10/22 01:03:18;;;;;;;6.43;1.05;;;12.30;99.90;;;;;;5073320;28;20051;-75
2023/10/22 01:06:06;;;;;;;4.68;0.93;;;12.30;99.90;;;;;;5072563;28;20531;-78
2023/10/22 01:08:54;;;;;;;6.57;0.90;;;12.30;99.90;;;;;;5072687;28;20056;-75
2023/10/22 01:12:04;;;;;;;4.15;1.02;;;12.30;99.90;;;;;;5072596;28;20048;-75
2023/10/22 01:14:50;;;;;;;5.63;0.95;;;12.30;99.90;;;;;;5072967;28;20048;-78
2023/10/22 01:17:36;;;;;;;5.82;1.20;;;12.30;99.90;;;;;;5090625;28;20118;-79
2023/10/22 01:20:50;;;;;;;12.73;1.77;;;12.30;99.90;;;;;;5069868;28;20154;-75
2023/10/22 01:24:05;;;;;;;6.05;1.02;;;12.30;99.90;;;;;;5091758;28;20427;-77
2023/10/22 01:26:51;;;;;;;7.00;0.98;;;12.30;99.90;;;;;;5073291;28;20412;-79
2023/10/22 01:29:37;;;;;;;9.07;1.65;;;12.30;99.90;;;;;;5073579;28;20121;-81
2023/10/22 01:32:24;;;;;;;6.05;1.08;;;12.40;99.90;;;;;;5072693;28;20097;-75
2023/10/22 01:35:12;;;;;;;8.55;1.30;;;12.30;99.90;;;;;;5073118;28;20044;-79
2023/10/22 01:37:58;;;;;;;6.43;1.60;;;12.30;99.90;;;;;;5073442;28;20056;-75
2023/10/22 01:40:44;;;;;;;8.77;1.42;;;12.30;99.90;;;;;;5072845;28;20051;-83
2023/10/22 01:43:30;;;;;;;7.10;1.25;;;12.30;99.90;;;;;;5091411;28;20141;-77
2023/10/22 01:46:16;;;;;;;9.23;1.25;;;12.20;99.90;;;;;;5076026;28;20055;-73
2023/10/22 01:49:02;;;;;;;7.53;1.17;;;12.20;99.90;;;;;;5063497;28;20048;-74
2023/10/22 01:51:48;;;;;;;7.25;1.20;;;12.20;99.90;;;;;;5079272;28;20055;-74
2023/10/22 01:54:36;;;;;;;9.73;1.40;;;12.20;99.90;;;;;;5077327;28;20115;-74
2023/10/22 01:57:23;;;;;;;5.65;0.73;;;12.10;99.90;;;;;;5095826;28;20048;-76
2023/10/22 02:00:10;;;;;;;4.82;1.67;;;12.10;99.90;;;;;;5097016;28;20729;-74
2023/10/22 02:02:56;;;;;;;6.10;1.20;;;12.00;99.90;;;;;;5078321;28;20131;-73
2023/10/22 02:05:42;;;;;;;11.20;1.88;;;11.90;99.90;;;;;;5071748;28;20109;-75
2023/10/22 02:08:28;;;;;;;6.03;1.02;;;11.90;99.90;;;;;;5072566;28;20091;-74
2023/10/22 02:11:14;;;;;;;7.10;1.30;;;11.80;99.90;;;;;;5072887;28;20400;-73
2023/10/22 02:14:00;;;;;;;7.40;1.20;;;11.80;99.90;;;;;;5061017;28;20519;-73
2023/10/22 02:16:46;;;;;;;8.15;1.67;;;11.80;99.90;;;;;;5076537;28;20106;-74
2023/10/22 02:22:44;;;;;;;4.95;1.23;;;11.70;99.90;;;;;;5076051;28;20048;-74
2023/10/22 02:25:30;;;;;;;4.15;1.00;;;11.70;99.90;;;;;;5075354;28;20044;-74
2023/10/22 02:28:19;;;;;;;8.07;1.65;;;11.70;99.90;;;;;;5093364;28;20059;-80
2023/10/22 02:31:05;;;;;;;4.72;1.38;;;11.70;99.90;;;;;;5075099;28;20059;-74
2023/10/22 02:34:01;;;;;;;7.22;1.90;;;11.70;99.90;;;;;;5075385;28;20063;-74
2023/10/22 02:36:47;;;;;;;6.07;1.42;;;11.60;99.90;;;;;;5076208;28;20056;-73
2023/10/22 02:39:33;;;;;;;5.00;1.40;;;11.60;99.90;;;;;;5062575;28;20061;-73
2023/10/22 02:42:19;;;;;;;4.07;1.25;;;11.50;99.90;;;;;;5062844;28;20369;-73
2023/10/22 02:45:05;;;;;;;6.45;2.00;;;11.50;99.90;;;;;;5074810;28;20496;-73
2023/10/22 02:47:51;;;;;;;6.45;1.85;;;11.60;99.90;;;;;;5061128;28;20060;-74
2023/10/22 02:50:38;;;;;;;3.33;1.25;;;11.50;99.90;;;;;;5093362;28;20059;-73
2023/10/22 02:53:24;;;;;;;6.03;1.52;;;11.50;99.90;;;;;;5061873;28;20052;-73
2023/10/22 02:56:10;;;;;;;4.22;1.30;;;11.50;99.90;;;;;;5062284;28;20097;-75
2023/10/22 02:58:56;;;;;;;7.60;1.65;;;11.60;99.90;;;;;;5074891;28;20060;-75
2023/10/22 03:01:43;;;;;;;4.00;1.30;;;11.50;99.90;;;;;;5075038;28;20052;-73
2023/10/22 03:04:29;;;;;;;7.85;1.35;;;11.50;99.90;;;;;;5079133;28;20048;-73
2023/10/22 03:07:15;;;;;;;3.63;1.77;;;11.50;99.90;;;;;;5065083;28;20198;-80
2023/10/22 03:10:01;;;;;;;5.97;1.80;;;11.50;99.90;;;;;;5074307;28;20052;-77
2023/10/22 03:12:47;;;;;;;4.78;1.38;;;11.50;99.90;;;;;;5061714;28;20083;-78
2023/10/22 03:15:33;;;;;;;5.85;1.80;;;11.50;99.90;;;;;;5074551;28;20056;-73
2023/10/22 03:18:19;;;;;;;5.13;1.75;;;11.50;99.90;;;;;;5071082;28;20060;-74
2023/10/22 03:21:13;;;;;;;4.88;1.65;;;11.50;99.90;;;;;;5053840;28;20049;-75
2023/10/22 03:23:59;;;;;;;8.23;1.90;;;11.50;99.90;;;;;;5054905;28;20520;-79
2023/10/22 03:26:46;;;;;;;4.40;1.63;;;11.50;99.90;;;;;;5054346;28;20511;-86
2023/10/22 03:29:32;;;;;;;5.30;1.58;;;11.50;99.90;;;;;;5073661;28;20053;-74
2023/10/22 03:32:18;;;;;;;7.18;1.90;;;11.50;99.90;;;;;;5053824;28;20052;-79
2023/10/22 03:35:06;;;;;;;6.85;1.95;;;11.50;99.90;;;;;;5054633;28;20551;-83
2023/10/22 03:37:52;;;;;;;5.60;1.58;;;11.50;99.90;;;;;;5073301;28;20048;-78
2023/10/22 03:40:38;;;;;;;6.85;1.42;;;11.50;99.90;;;;;;5054892;28;20141;-74
2023/10/22 03:43:26;;;;;;;6.95;1.73;;;11.50;99.90;;;;;;5054800;28;20143;-75
2023/10/22 03:46:12;;;;;;;4.65;1.65;;;11.50;99.90;;;;;;5072624;28;20118;-77
2023/10/22 03:48:58;;;;;;;5.13;1.40;;;11.50;99.90;;;;;;5072861;28;20048;-75
2023/10/22 03:51:44;;;;;;;5.38;1.35;;;11.60;99.90;;;;;;5054916;28;20044;-78
2023/10/22 03:54:30;;;;;;;7.70;1.50;;;11.50;99.90;;;;;;5040555;28;20056;-74
2023/10/22 03:57:16;;;;;;;4.70;1.60;;;11.50;99.90;;;;;;5040180;28;20040;-73
2023/10/22 04:00:07;;;;;;;4.13;1.70;;;11.50;99.90;;;;;;5053791;28;20066;-74
2023/10/22 04:02:53;;;;;;;7.28;2.20;;;11.50;99.90;;;;;;5053758;28;20134;-74
2023/10/22 04:05:39;;;;;;;7.88;1.52;;;11.50;99.90;;;;;;5054757;28;20045;-75
2023/10/22 04:08:26;;;;;;;3.85;1.40;;;11.50;99.90;;;;;;5054448;28;20091;-76
2023/10/22 04:11:12;;;;;;;3.75;1.52;;;11.50;99.90;;;;;;5054709;28;20064;-74
2023/10/22 04:13:58;;;;;;;3.55;1.70;;;11.50;99.90;;;;;;5040859;28;20516;-77
2023/10/22 04:16:44;;;;;;;5.53;1.58;;;11.50;99.90;;;;;;5055171;28;20059;-76
2023/10/22 04:19:30;;;;;;;3.65;1.42;;;11.50;99.90;;;;;;5084405;28;20185;-76
2023/10/22 04:22:16;;;;;;;7.13;1.55;;;11.50;99.90;;;;;;5074260;28;20048;-76
2023/10/22 04:25:02;;;;;;;5.47;1.55;;;11.50;99.90;;;;;;5092244;28;20040;-78
2023/10/22 04:27:48;;;;;;;5.18;1.63;;;11.50;99.90;;;;;;5073092;28;20056;-74
2023/10/22 04:30:41;;;;;;;3.15;1.48;;;11.50;99.90;;;;;;5074020;28;20052;-77
2023/10/22 04:33:27;;;;;;;4.53;1.45;;;11.60;99.90;;;;;;5073158;28;20048;-79
2023/10/22 04:36:19;;;;;;;4.25;1.67;;;11.50;99.90;;;;;;5073663;28;20052;-77
2023/10/22 04:39:04;;;;;;;4.47;1.70;;;11.60;99.90;;;;;;5091286;28;20550;-73
2023/10/22 04:41:51;;;;;;;5.13;1.35;;;11.60;99.90;;;;;;5073314;28;20124;-81
2023/10/22 04:44:37;;;;;;;4.57;1.80;;;11.60;99.90;;;;;;5076284;28;20047;-79
2023/10/22 04:47:23;;;;;;;5.80;1.60;;;11.60;99.90;;;;;;5072965;28;20419;-74
2023/10/22 04:50:09;;;;;;;3.55;1.55;;;11.60;99.90;;;;;;5073867;28;20048;-79
2023/10/22 04:52:57;;;;;;;5.20;2.05;;;11.60;99.90;;;;;;5073237;28;20059;-77
2023/10/22 04:55:43;;;;;;;4.30;1.85;;;11.60;99.90;;;;;;5059296;28;20063;-81
2023/10/22 04:58:30;;;;;;;5.03;1.95;;;11.60;99.90;;;;;;5072987;28;20044;-79
2023/10/22 05:01:16;;;;;;;3.63;1.98;;;11.60;99.90;;;;;;5073098;28;20087;-77
2023/10/22 05:04:02;;;;;;;4.18;2.33;;;11.60;99.90;;;;;;5072464;28;20052;-80
2023/10/22 05:06:48;;;;;;;5.07;2.08;;;11.70;99.90;;;;;;5059275;28;20059;-78
2023/10/22 05:09:34;;;;;;;7.25;3.08;;;11.70;99.90;;;;;;5059117;28;20492;-75
2023/10/22 05:12:20;;;;;;;9.15;3.13;;;11.70;99.90;;;;;;5072399;28;20051;-75
2023/10/22 05:15:08;;;;;;;5.13;2.65;;;11.70;99.90;;;;;;5072126;28;20059;-76
2023/10/22 05:17:55;;;;;;;7.20;3.38;;;11.70;99.90;;;;;;5072066;28;20052;-75
2023/10/22 05:20:40;;;;;;;6.65;3.80;;;11.70;99.90;;;;;;5090338;28;20051;-82
2023/10/22 05:23:27;;;;;;;7.43;4.60;;;11.80;99.90;;;;;;5073338;28;20052;-75
2023/10/22 05:26:15;;;;;;;8.60;4.95;;;11.80;99.90;;;;;;5073111;28;20700;-79
2023/10/22 05:29:04;;;;;;;10.93;5.75;;;11.80;99.90;;;;;;5072352;28;20506;-80
2023/10/22 05:31:50;;;;;;;11.07;5.55;;;11.80;99.90;;;;;;5072491;28;20048;-78
2023/10/22 05:34:36;;;;;;;12.52;6.90;;;11.80;99.90;;;;;;5073315;28;20048;-78
2023/10/22 05:37:22;;;;;;;11.73;7.35;;;11.80;99.90;;;;;;5073021;28;20139;-85
2023/10/22 05:40:11;;;;;;;13.68;7.95;;;11.90;99.90;;;;;;5072532;28;20071;-76
2023/10/22 05:42:57;;;;;;;12.32;7.03;;;11.90;99.90;;;;;;5072632;28;20555;-81
2023/10/22 05:45:43;;;;;;;12.00;7.47;;;11.90;99.90;;;;;;5059683;28;20060;-83
2023/10/22 05:48:29;;;;;;;15.48;8.65;;;11.90;99.90;;;;;;5088972;28;20125;-80
2023/10/22 05:51:15;;;;;;;13.55;9.40;;;11.90;99.90;;;;;;5058341;28;20051;-79
2023/10/22 05:54:03;;;;;;;17.35;10.50;;;11.90;99.90;;;;;;5071885;28;20054;-77
2023/10/22 05:56:49;;;;;;;17.73;10.73;;;12.00;99.90;;;;;;5071959;28;20062;-77
2023/10/22 05:59:36;;;;;;;20.77;11.43;;;12.00;99.90;;;;;;5071883;28;20510;-83
2023/10/22 06:02:22;;;;;;;18.83;11.32;;;12.00;99.90;;;;;;5057894;28;20056;-80
2023/10/22 06:05:08;;;;;;;17.73;9.63;;;12.00;99.90;;;;;;5090991;28;20416;-74
2023/10/22 06:07:54;;;;;;;12.13;6.75;;;12.10;99.90;;;;;;5072272;28;20412;-75
2023/10/22 06:10:44;;;;;;;8.27;4.00;;;12.10;99.90;;;;;;5072486;28;20056;-80
2023/10/22 06:13:32;;;;;;;8.32;3.28;;;12.10;99.90;;;;;;5072329;28;20091;-83
2023/10/22 06:16:18;;;;;;;9.07;1.98;;;12.00;99.90;;;;;;5071073;28;20056;-83
2023/10/22 06:19:04;;;;;;;9.48;1.92;;;12.00;99.90;;;;;;5070389;28;20087;-77
2023/10/22 06:21:50;;;;;;;9.68;1.83;;;11.90;99.90;;;;;;5072669;28;20080;-77
2023/10/22 06:24:36;;;;;;;9.73;1.73;;;11.80;99.90;;;;;;5072450;28;20059;-82
2023/10/22 06:27:22;;;;;;;13.18;1.77;;;11.80;99.90;;;;;;5072392;28;20051;-82
2023/10/22 06:30:08;;;;;;;9.80;1.40;;;11.70;99.90;;;;;;5058542;28;20059;-78
2023/10/22 06:32:56;;;;;;;9.45;2.03;;;11.70;99.90;;;;;;5071660;28;20048;-81
2023/10/22 06:35:42;;;;;;;7.65;1.40;;;11.60;99.90;;;;;;5071915;28;20060;-82
2023/10/22 06:38:28;;;;;;;10.07;1.58;;;11.50;99.90;;;;;;5072569;28;20504;-81
2023/10/22 06:41:15;;;;;;;10.00;1.75;;;11.50;99.90;;;;;;5072562;28;20083;-77
2023/10/22 06:44:01;;;;;;;13.30;2.60;;;11.50;99.90;;;;;;5071676;28;20101;-83
2023/10/22 06:46:47;;;;;;;15.70;2.85;;;11.50;99.90;;;;;;5058256;28;20062;-83
2023/10/22 06:49:33;;;;;;;18.13;3.35;;;11.50;99.90;;;;;;5072399;28;20040;-80
2023/10/22 06:52:19;;;;;;;15.80;3.28;;;11.50;99.90;;;;;;5070799;28;20103;-74
2023/10/22 06:55:06;;;;;;;8.20;2.45;;;11.50;99.90;;;;;;5058231;28;20052;-81
2023/10/22 06:57:52;;;;;;;13.25;2.58;;;11.50;99.90;;;;;;5072023;28;20435;-81
2023/10/22 07:00:38;;;;;;;12.88;2.63;;;11.40;99.90;;;;;;5075727;28;20569;-73
2023/10/22 07:03:24;;;;;;;9.30;2.75;;;11.40;99.90;;;;;;5074335;28;20057;-75
2023/10/22 07:06:10;;;;;;;11.95;2.50;;;11.40;99.90;;;;;;5076009;28;20052;-78
2023/10/22 07:08:56;;;;;;;11.50;2.42;;;11.40;99.90;;;;;;5074031;28;20052;-80
2023/10/22 07:11:43;;;;;;;10.88;2.10;;;11.30;99.90;;;;;;5075756;28;20097;-83
2023/10/22 07:14:29;;;;;;;8.48;1.73;;;11.30;99.90;;;;;;5075379;28;20048;-83
2023/10/22 07:17:15;;;;;;;5.43;1.85;;;11.30;99.90;;;;;;5075945;28;20503;-82
2023/10/22 07:20:01;;;;;;;10.60;3.15;;;11.30;99.90;;;;;;5075057;28;20072;-78
2023/10/22 07:22:47;;;;;;;6.40;2.00;;;11.30;99.90;;;;;;5075529;28;20055;-77
2023/10/22 07:25:34;;;;;;;7.53;1.60;;;11.30;99.90;;;;;;5075378;28;20051;-74
2023/10/22 07:28:20;;;;;;;13.38;2.63;;;11.30;99.90;;;;;;5092679;28;20055;-77
2023/10/22 07:31:06;;;;;;;12.23;2.17;;;11.30;99.90;;;;;;5075529;28;20056;-78
2023/10/22 07:33:52;;;;;;;11.02;2.13;;;11.30;99.90;;;;;;5075417;28;20051;-77
2023/10/22 07:36:38;;;;;;;9.05;2.63;;;11.40;99.90;;;;;;5075409;28;20491;-79
2023/10/22 07:39:24;;;;;;;14.75;2.03;;;11.50;99.90;;;;;;5073519;28;20059;-82
2023/10/22 07:42:10;;;;;;;8.65;2.47;;;11.50;99.90;;;;;;5060980;28;20070;-77
2023/10/22 07:44:56;;;;;;;8.88;1.92;;;11.50;99.90;;;;;;5092329;28;20040;-85
2023/10/22 07:47:42;;;;;;;12.35;2.47;;;11.50;99.90;;;;;;5092381;28;20058;-77
2023/10/22 07:50:28;;;;;;;16.17;2.45;;;11.50;99.90;;;;;;5074893;28;20056;-78
2023/10/22 07:53:16;;;;;;;13.38;2.78;;;11.50;99.90;;;;;;5061317;28;20044;-78
2023/10/22 07:56:03;;;;;;;12.15;3.10;;;11.50;99.90;;;;;;5092670;28;20040;-77
2023/10/22 07:58:49;;;;;;;14.35;3.08;;;11.60;99.90;;;;;;5074375;28;20052;-76
2023/10/22 08:01:35;;;;;;;9.70;2.65;;;11.60;99.90;;;;;;5072991;28;20138;-77
2023/10/22 08:04:21;;;;;;;9.55;2.55;;;11.60;99.90;;;;;;5091536;28;20062;-77
2023/10/22 08:07:07;;;;;;;11.70;2.10;;;11.60;99.90;;;;;;5092485;28;20102;-78
2023/10/22 08:09:53;;;;;;;12.15;2.55;;;11.60;99.90;;;;;;5074209;28;20051;-77
2023/10/22 08:12:39;;;;;;;9.80;2.80;;;11.70;99.90;;;;;;5074233;28;20056;-78
2023/10/22 08:15:25;;;;;;;9.45;2.03;;;11.70;99.90;;;;;;5059788;28;20555;-81
2023/10/22 08:18:11;;;;;;;8.82;2.92;;;11.70;99.90;;;;;;5074290;28;20052;-73
2023/10/22 08:21:04;;;;;;;11.60;3.53;;;11.70;99.90;;;;;;5073519;28;20500;-76
2023/10/22 08:23:50;;;;;;;10.77;2.50;;;11.70;99.90;;;;;;5059691;28;20048;-80
2023/10/22 08:26:35;;;;;;;6.80;2.40;;;11.70;99.90;;;;;;5059984;28;20056;-78
2023/10/22 08:29:22;;;;;;;6.82;1.98;;;11.80;99.90;;;;;;5074061;28;20076;-76
2023/10/22 08:32:08;;;;;;;12.25;2.53;;;11.80;99.90;;;;;;5072036;28;20470;-79
2023/10/22 08:34:54;;;;;;;13.20;2.65;;;11.90;99.90;;;;;;5090053;28;20500;-80
2023/10/22 08:37:41;;;;;;;11.65;1.83;;;11.90;99.90;;;;;;5072200;28;20052;-78
2023/10/22 08:40:27;;;;;;;9.68;1.70;;;12.00;99.90;;;;;;5060625;28;20052;-78
2023/10/22 08:43:17;;;;;;;12.55;2.53;;;12.10;99.90;;;;;;5072914;28;20696;-82
2023/10/22 08:46:03;;;;;;;7.32;1.80;;;12.10;99.90;;;;;;5091649;28;20047;-78
2023/10/22 08:48:50;;;;;;;5.32;1.65;;;12.10;99.90;;;;;;5072171;28;20087;-82
2023/10/22 08:51:36;;;;;;;6.43;1.25;;;12.20;99.90;;;;;;5073259;28;20059;-80
2023/10/22 08:54:22;;;;;;;5.03;1.25;;;12.20;99.90;;;;;;5091541;28;20146;-78
2023/10/22 08:57:08;;;;;;;4.82;1.70;;;12.20;99.90;;;;;;5109043;28;20058;-78
2023/10/22 08:59:54;;;;;;;5.15;1.33;;;12.30;99.90;;;;;;5092809;28;20176;-75
2023/10/22 09:02:42;;;;;;;5.90;1.17;;;12.30;99.90;;;;;;5093047;28;20048;-79
2023/10/22 09:05:29;;;;;;;9.98;1.50;;;12.40;99.90;;;;;;5092689;28;20058;-87
2023/10/22 09:08:18;;;;;;;9.68;1.38;;;12.30;99.90;;;;;;5111950;28;20059;-77
2023/10/22 09:11:12;;;;;;;6.10;1.35;;;12.40;99.90;;;;;;5092740;28;20687;-79
2023/10/22 09:13:58;;;;;;;5.17;0.93;;;12.40;99.90;;;;;;5092681;28;20096;-81
2023/10/22 09:16:45;;;;;;;5.03;1.00;;;12.40;99.90;;;;;;5092568;28;20474;-80
2023/10/22 09:19:41;;;;;;;4.97;1.20;;;12.50;99.90;;;;;;5110471;28;20415;-74
2023/10/22 09:22:27;;;;;;;7.10;1.30;;;12.50;99.90;;;;;;5110763;28;20138;-86
2023/10/22 09:25:14;;;;;;;5.30;1.15;;;12.50;99.90;;;;;;5092732;28;20055;-79
2023/10/22 09:28:22;;;;;;;10.75;1.58;;;12.60;99.90;;;;;;5092250;28;20136;-75
2023/10/22 09:31:09;;;;;;;3.45;0.98;;;12.70;99.90;;;;;;5079242;28;20103;-85
2023/10/22 09:33:55;;;;;;;5.43;1.40;;;12.70;99.90;;;;;;5096267;28;20051;-80
2023/10/22 09:36:57;;;;;;;6.60;1.30;;;12.80;99.90;;;;;;5092226;28;20048;-81
2023/10/22 09:39:44;;;;;;;7.80;1.20;;;12.70;99.90;;;;;;5110141;28;20487;-80
2023/10/22 09:42:31;;;;;;;5.13;1.48;;;12.70;99.90;;;;;;5077795;28;20213;-76
2023/10/22 09:45:18;;;;;;;14.98;2.42;;;12.70;99.90;;;;;;5092195;28;20134;-79
2023/10/22 09:48:06;;;;;;;8.35;1.20;;;12.70;99.90;;;;;;5091959;28;20139;-80
2023/10/22 09:50:53;;;;;;;8.23;1.30;;;12.60;99.90;;;;;;5092052;28;20058;-79
2023/10/22 09:53:54;;;;;;;10.07;1.23;;;12.60;99.90;;;;;;5111142;28;20047;-82
2023/10/22 09:56:51;;;;;;;6.95;2.25;;;12.50;99.90;;;;;;5091881;28;20475;-79
2023/10/22 09:59:39;;;;;;;9.27;1.27;;;12.40;99.90;;;;;;5091919;28;20108;-85
2023/10/22 10:02:26;;;;;;;5.80;1.10;;;12.30;99.90;;;;;;5091895;28;20047;-76
2023/10/22 10:05:13;;;;;;;8.23;1.75;;;12.20;99.90;;;;;;5091634;28;20073;-78
2023/10/22 10:07:59;;;;;;;5.75;0.88;;;12.10;99.90;;;;;;5091883;28;20067;-75
2023/10/22 10:10:47;;;;;;;5.60;1.30;;;12.10;99.90;;;;;;5110341;28;20044;-77
2023/10/22 10:13:35;;;;;;;7.28;1.38;;;12.10;99.90;;;;;;5111364;28;20054;-75
2023/10/22 10:16:24;;;;;;;7.03;1.23;;;12.00;99.90;;;;;;5091827;28;20047;-74
2023/10/22 10:19:10;;;;;;;4.80;1.05;;;12.00;99.90;;;;;;5109315;28;20859;-74
2023/10/22 10:21:56;;;;;;;5.07;1.10;;;12.00;99.90;;;;;;5110152;28;20130;-76
2023/10/22 10:24:44;;;;;;;5.85;0.85;;;11.90;99.90;;;;;;5078063;28;20062;-77
2023/10/22 10:27:30;;;;;;;8.05;1.80;;;11.90;99.90;;;;;;5078636;28;20399;-74
2023/10/22 10:30:17;;;;;;;3.25;0.93;;;11.90;99.90;;;;;;5091234;28;20112;-76
2023/10/22 10:33:03;;;;;;;4.15;0.80;;;11.90;99.90;;;;;;5091717;28;20067;-74
2023/10/22 10:35:50;;;;;;;8.23;1.05;;;11.90;99.90;;;;;;5082696;28;20044;-79
2023/10/22 10:38:36;;;;;;;5.60;1.42;;;11.90;99.90;;;;;;5114462;28;20048;-76
2023/10/22 10:41:50;;;;;;;3.83;1.00;;;12.00;99.90;;;;;;5095847;28;20059;-75
2023/10/22 10:44:57;;;;;;;6.35;1.30;;;12.10;99.90;;;;;;5113729;28;20043;-75
2023/10/22 10:47:45;;;;;;;8.52;1.00;;;12.30;99.90;;;;;;5095302;28;20052;-82
2023/10/22 10:50:31;;;;;;;6.75;0.80;;;12.40;99.90;;;;;;5095127;28;20047;-77
2023/10/22 10:53:17;;;;;;;3.45;0.77;;;12.60;99.90;;;;;;5095156;28;20056;-78
2023/10/22 10:56:04;;;;;;;4.05;0.82;;;12.80;99.90;;;;;;5095347;28;20090;-75
2023/10/22 10:58:50;;;;;;;3.55;0.52;;;13.00;99.90;;;;;;5095089;28;20048;-75
2023/10/22 11:01:36;;;;;;;2.38;0.50;;;13.10;99.90;;;;;;5080873;28;20135;-74
2023/10/22 11:04:22;;;;;;;2.60;0.60;;;13.40;99.90;;;;;;5094877;28;20055;-74
2023/10/22 11:07:10;;;;;;;3.25;0.70;;;13.90;99.90;;;;;;5081740;28;20048;-72
2023/10/22 11:09:56;;;;;;;5.28;0.85;;;14.50;99.90;;;;;;5094925;28;20119;-74
2023/10/22 11:12:45;;;;;;;2.90;0.60;;;14.80;99.90;;;;;;5094940;28;20059;-74
2023/10/22 11:15:36;;;;;;;3.72;0.82;;;15.40;99.90;;;;;;5095009;28;20059;-73
2023/10/22 11:18:22;;;;;;;3.78;0.63;;;15.50;99.90;;;;;;5081643;28;20056;-83
2023/10/22 11:21:08;;;;;;;1.60;0.32;;;16.50;99.90;;;;;;5094439;28;20432;-75
2023/10/22 11:23:55;;;;;;;3.72;0.70;;;16.10;99.90;;;;;;5081641;28;20151;-75
2023/10/22 11:26:41;;;;;;;3.65;0.68;;;15.30;99.90;;;;;;5094661;28;20051;-75
2023/10/22 11:29:27;;;;;;;2.78;0.52;;;14.60;99.90;;;;;;5094918;28;20112;-84
2023/10/22 11:32:14;;;;;;;3.47;0.70;;;14.10;99.90;;;;;;5113378;28;20058;-80
2023/10/22 11:35:04;;;;;;;2.33;0.50;;;13.80;99.90;;;;;;5112941;28;20059;-81
2023/10/22 11:37:50;;;;;;;4.38;0.85;;;13.40;99.90;;;;;;5095720;28;20131;-85
2023/10/22 11:40:38;;;;;;;3.03;0.30;;;13.20;99.90;;;;;;5095745;28;20059;-77
2023/10/22 11:43:24;;;;;;;2.83;0.90;;;13.10;99.90;;;;;;5113792;28;20050;-78
2023/10/22 11:46:11;;;;;;;2.08;0.63;;;12.90;99.90;;;;;;5094085;28;20062;-82
2023/10/22 11:49:01;;;;;;;3.58;1.23;;;12.80;99.90;;;;;;5100670;28;20039;-79
2023/10/22 11:51:47;;;;;;;3.08;0.50;;;12.70;99.90;;;;;;5104131;28;20048;-74
2023/10/22 11:54:44;;;;;;;5.70;1.50;;;12.60;99.90;;;;;;5090194;28;20077;-77
2023/10/22 11:57:33;;;;;;;1.80;0.55;;;12.70;99.90;;;;;;5095082;28;20071;-73
2023/10/22 12:00:19;;;;;;;4.13;1.00;;;13.70;99.90;;;;;;5093949;28;20044;-73
2023/10/22 12:03:05;;;;;;;3.88;0.60;;;14.60;99.90;;;;;;5094043;28;20051;-77
2023/10/22 12:05:51;;;;;;;3.65;0.57;;;16.20;99.90;;;;;;5093906;28;20518;-76
2023/10/22 12:08:37;;;;;;;3.55;0.57;;;17.70;99.90;;;;;;5093541;28;20121;-73
2023/10/22 12:11:23;;;;;;;4.72;0.80;;;18.30;99.90;;;;;;5093770;28;20090;-73
2023/10/22 12:14:10;;;;;;;4.80;1.00;;;18.30;99.90;;;;;;5093811;28;20065;-81
2023/10/22 12:16:56;;;;;;;5.38;1.23;;;18.80;99.90;;;;;;5093918;28;20052;-78
2023/10/22 12:19:42;;;;;;;3.80;0.73;;;19.70;99.90;;;;;;5098496;28;20048;-74
2023/10/22 12:22:28;;;;;;;4.50;0.73;;;20.50;99.90;;;;;;5074303;28;20052;-78
2023/10/22 12:25:14;;;;;;;5.93;1.13;;;20.90;98.50;;;;;;5074030;28;20130;-78
2023/10/22 12:28:00;;;;;;;2.63;0.68;;;21.50;97.50;;;;;;5073267;28;20043;-75
2023/10/22 12:30:46;;;;;;;2.33;0.60;;;22.00;96.20;;;;;;5073800;28;20044;-74
2023/10/22 12:33:32;;;;;;;3.60;0.75;;;22.60;95.70;;;;;;5073589;28;20052;-75
2023/10/22 12:36:18;;;;;;;3.13;0.88;;;22.60;93.90;;;;;;5072607;28;20052;-75
2023/10/22 12:39:07;;;;;;;2.92;0.70;;;23.40;94.20;;;;;;5073400;28;20558;-73
2023/10/22 12:41:53;;;;;;;3.55;0.60;;;23.20;93.50;;;;;;5092525;28;20052;-77
2023/10/22 12:44:43;;;;;;;2.83;0.65;;;23.70;92.10;;;;;;5068272;28;20377;-73
2023/10/22 12:47:29;;;;;;;3.70;0.40;;;23.60;89.30;;;;;;5059750;28;20412;-80
2023/10/22 12:50:15;;;;;;;3.92;0.60;;;23.90;91.20;;;;;;5074635;28;20044;-78
2023/10/22 12:53:02;;;;;;;2.63;0.50;;;22.70;90.20;;;;;;5060493;28;20048;-76
2023/10/22 12:55:53;;;;;;;4.40;0.60;;;21.10;91.60;;;;;;5074744;28;20132;-78
2023/10/22 12:58:39;;;;;;;6.45;0.70;;;20.00;93.70;;;;;;5059789;28;20055;-74
2023/10/22 13:01:25;;;;;;;4.28;0.85;;;19.60;95.40;;;;;;5073580;28;20403;-74
2023/10/22 13:04:13;;;;;;;4.22;0.85;;;19.00;96.20;;;;;;5090177;28;20048;-73
2023/10/22 13:06:59;;;;;;;5.03;0.68;;;18.00;96.90;;;;;;5073235;28;20121;-72
2023/10/22 13:09:45;;;;;;;2.60;0.50;;;17.40;98.10;;;;;;5071786;28;20528;-75
2023/10/22 13:12:31;;;;;;;3.17;0.50;;;16.70;98.80;;;;;;5091932;28;20399;-77
2023/10/22 13:15:17;;;;;;;3.10;0.60;;;16.40;99.80;;;;;;5060008;28;20774;-77
2023/10/22 13:18:03;;;;;;;4.10;0.60;;;15.90;99.90;;;;;;5090477;28;20507;-73
2023/10/22 13:20:49;;;;;;;4.53;0.35;;;15.50;99.90;;;;;;5052500;28;20131;-74
2023/10/22 13:23:35;;;;;;;2.95;0.50;;;15.40;99.90;;;;;;5053797;28;20060;-81
2023/10/22 13:26:21;;;;;;;2.05;0.40;;;15.50;99.90;;;;;;5070329;28;20562;-76
2023/10/22 13:29:07;;;;;;;3.33;0.50;;;15.60;99.90;;;;;;5053440;28;20059;-75
2023/10/22 13:31:53;;;;;;;5.57;1.02;;;15.40;99.90;;;;;;5039692;28;20052;-83
2023/10/22 13:34:39;;;;;;;2.50;0.70;;;15.30;99.90;;;;;;5052586;28;20048;-80
2023/10/22 13:37:25;;;;;;;4.95;0.50;;;15.10;99.90;;;;;;5053433;28;20056;-82
2023/10/22 13:40:11;;;;;;;3.58;0.50;;;15.10;99.90;;;;;;5038440;28;20117;-74
2023/10/22 13:42:57;;;;;;;7.80;0.65;;;15.00;99.90;;;;;;5052465;28;20056;-79
2023/10/22 13:45:44;;;;;;;4.65;0.65;;;14.80;99.90;;;;;;5052866;28;20055;-76
2023/10/22 13:48:30;;;;;;;1.75;0.40;;;14.50;99.90;;;;;;5071515;28;20111;-75
2023/10/22 13:51:16;;;;;;;3.80;0.60;;;14.40;99.90;;;;;;5053345;28;20056;-78
2023/10/22 13:54:02;;;;;;;5.13;1.08;;;14.20;99.90;;;;;;5053476;28;20056;-75
2023/10/22 13:56:49;;;;;;;2.75;0.50;;;14.20;99.90;;;;;;5052267;28;20055;-78
2023/10/22 13:59:35;;;;;;;5.13;0.65;;;14.20;99.90;;;;;;5053366;28;20514;-74
2023/10/22 14:02:21;;;;;;;5.63;1.00;;;14.10;99.90;;;;;;5053929;28;20154;-80
2023/10/22 14:05:11;;;;;;;2.95;0.68;;;14.10;99.90;;;;;;5053808;28;20154;-75
2023/10/22 14:07:57;;;;;;;4.18;0.85;;;14.20;99.90;;;;;;5072438;28;20516;-76
2023/10/22 14:10:43;;;;;;;1.38;0.30;;;14.30;99.90;;;;;;5058555;28;20697;-75
2023/10/22 14:13:29;;;;;;;3.35;0.60;;;14.60;99.90;;;;;;5044243;28;20044;-74
2023/10/22 14:16:16;;;;;;;6.85;1.08;;;15.30;99.90;;;;;;5057460;28;20041;-75
2023/10/22 14:19:02;;;;;;;3.10;0.70;;;16.90;99.90;;;;;;5063537;28;20814;-75
2023/10/22 14:21:48;;;;;;;4.40;0.57;;;18.00;99.50;;;;;;5075744;28;20064;-81
2023/10/22 14:24:34;;;;;;;4.35;0.75;;;19.50;98.20;;;;;;5076233;28;20051;-76
2023/10/22 14:27:21;;;;;;;3.72;0.47;;;20.60;96.60;;;;;;5063075;28;20044;-73
2023/10/22 14:30:07;;;;;;;1.77;0.40;;;21.40;94.90;;;;;;5062813;28;20052;-73
2023/10/22 14:32:53;;;;;;;4.57;0.73;;;21.60;93.60;;;;;;5076265;28;20074;-74